KBFL/BFL METAR and TAF weather

Enter ICAO airport designator
Station Type Date Time Source
KBFL METAR 2020/07/10 20:54 UTC NOAA

KBFL 102054Z 33009KT 10SM CLR 37/06 A2995 RMK AO2 SLP133 T03670061 58009


Station Type Date Time Source
KBFL Decoded METAR 2020/07/10 20:54 UTC NOAA

BAKERSFIELD MEADOWS FIELD, CA, United States (KBFL) 35-26N 119-03W 151M
Jul 10, 2020 - 04:54 PM EDT / 2020.07.10 2054 UTC
Wind: from the NNW (330 degrees) at 10 MPH (9 KT):0
Visibility: 10 mile(s):0
Sky conditions: clear
Temperature: 98.1 F (36.7 C)
Dew Point: 43.0 F (6.1 C)
Relative Humidity: 15%
Pressure (altimeter): 29.95 in. Hg (1014 hPa)
Pressure tendency: 0.03 inches (0.9 hPa) lower than three hours ago
ob: KBFL 102054Z 33009KT 10SM CLR 37/06 A2995 RMK AO2 SLP133 T03670061 58009
cycle: 21

Station Type Date Time Source
KBFL TAF 2020/07/10 18:45 UTC NOAA

TAF KBFL 101742Z 1018/1118 32005KT P6SM BKN200

Example: see airport list